sensor_id;sensor_type;location;lat;lon;timestamp;temperature;humidity
25668;DHT22;18003;-33.830;151.202;2024-01-30T01:06:18;26.00;99.90
25668;DHT22;18003;-33.830;151.202;2024-01-30T01:08:50;25.90;99.90
25668;DHT22;18003;-33.830;151.202;2024-01-30T01:11:38;25.90;99.90
25668;DHT22;18003;-33.830;151.202;2024-01-30T01:14:08;25.90;99.90
25668;DHT22;18003;-33.830;151.202;2024-01-30T01:16:38;25.90;99.90
25668;DHT22;18003;-33.830;151.202;2024-01-30T01:22:22;25.80;99.90
25668;DHT22;18003;-33.830;151.202;2024-01-30T01:24:51;25.80;99.90
25668;DHT22;18003;-33.830;151.202;2024-01-30T02:24:25;27.50;99.90
25668;DHT22;18003;-33.830;151.202;2024-01-30T02:26:58;27.10;99.90
25668;DHT22;18003;-33.830;151.202;2024-01-30T02:29:30;27.30;99.90
25668;DHT22;18003;-33.830;151.202;2024-01-30T03:00:05;27.70;99.90
25668;DHT22;18003;-33.830;151.202;2024-01-30T03:44:39;27.60;99.90
25668;DHT22;18003;-33.830;151.202;2024-01-30T03:47:06;27.60;99.90
25668;DHT22;18003;-33.830;151.202;2024-01-30T03:49:36;27.50;99.90
25668;DHT22;18003;-33.830;151.202;2024-01-30T03:52:05;27.40;99.90
25668;DHT22;18003;-33.830;151.202;2024-01-30T03:54:44;27.30;99.90
25668;DHT22;18003;-33.830;151.202;2024-01-30T03:57:26;27.10;99.90
25668;DHT22;18003;-33.830;151.202;2024-01-30T03:59:48;27.30;99.90
25668;DHT22;18003;-33.830;151.202;2024-01-30T04:02:18;27.60;99.90
25668;DHT22;18003;-33.830;151.202;2024-01-30T04:20:49;27.70;99.90
25668;DHT22;18003;-33.830;151.202;2024-01-30T04:23:19;27.50;99.90
25668;DHT22;18003;-33.830;151.202;2024-01-30T04:25:49;27.70;99.90
25668;DHT22;18003;-33.830;151.202;2024-01-30T04:28:19;27.90;99.90
25668;DHT22;18003;-33.830;151.202;2024-01-30T04:30:48;28.00;99.90
25668;DHT22;18003;-33.830;151.202;2024-01-30T04:33:18;27.60;99.90
25668;DHT22;18003;-33.830;151.202;2024-01-30T04:35:48;27.70;99.90
25668;DHT22;18003;-33.830;151.202;2024-01-30T04:38:18;27.90;99.90
25668;DHT22;18003;-33.830;151.202;2024-01-30T04:40:48;28.00;99.90
25668;DHT22;18003;-33.830;151.202;2024-01-30T04:43:18;28.00;99.90
25668;DHT22;18003;-33.830;151.202;2024-01-30T04:45:49;27.70;99.90
25668;DHT22;18003;-33.830;151.202;2024-01-30T04:48:18;27.70;99.90
25668;DHT22;18003;-33.830;151.202;2024-01-30T04:50:48;28.00;99.90
25668;DHT22;18003;-33.830;151.202;2024-01-30T04:53:18;28.10;99.90
25668;DHT22;18003;-33.830;151.202;2024-01-30T04:55:48;28.10;99.90
25668;DHT22;18003;-33.830;151.202;2024-01-30T04:58:18;27.70;99.90
25668;DHT22;18003;-33.830;151.202;2024-01-30T05:00:47;27.80;99.90
25668;DHT22;18003;-33.830;151.202;2024-01-30T05:03:22;28.00;99.90
25668;DHT22;18003;-33.830;151.202;2024-01-30T05:05:51;28.10;99.90
25668;DHT22;18003;-33.830;151.202;2024-01-30T05:08:24;27.90;99.90
25668;DHT22;18003;-33.830;151.202;2024-01-30T05:10:57;27.60;99.90
25668;DHT22;18003;-33.830;151.202;2024-01-30T05:13:27;27.80;99.90
25668;DHT22;18003;-33.830;151.202;2024-01-30T05:15:56;28.00;99.90
25668;DHT22;18003;-33.830;151.202;2024-01-30T05:18:27;28.10;99.90
25668;DHT22;18003;-33.830;151.202;2024-01-30T05:20:57;27.80;99.90
25668;DHT22;18003;-33.830;151.202;2024-01-30T05:23:27;27.70;99.90
25668;DHT22;18003;-33.830;151.202;2024-01-30T05:25:57;27.90;99.90
25668;DHT22;18003;-33.830;151.202;2024-01-30T05:28:30;28.00;99.90
25668;DHT22;18003;-33.830;151.202;2024-01-30T05:31:00;28.10;99.90
25668;DHT22;18003;-33.830;151.202;2024-01-30T05:33:30;27.90;99.90
25668;DHT22;18003;-33.830;151.202;2024-01-30T05:36:00;27.80;99.90
25668;DHT22;18003;-33.830;151.202;2024-01-30T05:41:25;28.20;99.90
25668;DHT22;18003;-33.830;151.202;2024-01-30T05:43:55;28.30;99.90
25668;DHT22;18003;-33.830;151.202;2024-01-30T05:46:27;28.00;99.90
25668;DHT22;18003;-33.830;151.202;2024-01-30T05:48:57;28.10;99.90
25668;DHT22;18003;-33.830;151.202;2024-01-30T05:51:47;28.20;99.90
25668;DHT22;18003;-33.830;151.202;2024-01-30T05:54:17;28.30;99.90
25668;DHT22;18003;-33.830;151.202;2024-01-30T05:56:47;28.30;99.90
25668;DHT22;18003;-33.830;151.202;2024-01-30T05:59:16;28.10;99.90
25668;DHT22;18003;-33.830;151.202;2024-01-30T06:01:49;28.20;99.90
25668;DHT22;18003;-33.830;151.202;2024-01-30T06:04:22;28.40;99.90
25668;DHT22;18003;-33.830;151.202;2024-01-30T06:06:52;28.50;99.90
25668;DHT22;18003;-33.830;151.202;2024-01-30T06:09:22;28.40;99.90
25668;DHT22;18003;-33.830;151.202;2024-01-30T06:11:51;28.10;99.90
25668;DHT22;18003;-33.830;151.202;2024-01-30T06:14:21;27.80;99.90
25668;DHT22;18003;-33.830;151.202;2024-01-30T06:16:51;27.70;99.90
25668;DHT22;18003;-33.830;151.202;2024-01-30T06:19:21;27.60;99.90
25668;DHT22;18003;-33.830;151.202;2024-01-30T06:21:50;27.50;99.90
25668;DHT22;18003;-33.830;151.202;2024-01-30T06:24:21;27.50;99.90
25668;DHT22;18003;-33.830;151.202;2024-01-30T06:26:51;27.40;99.90
25668;DHT22;18003;-33.830;151.202;2024-01-30T06:29:20;27.30;99.90
25668;DHT22;18003;-33.830;151.202;2024-01-30T06:31:51;27.30;99.90
25668;DHT22;18003;-33.830;151.202;2024-01-30T06:34:21;27.20;99.90
25668;DHT22;18003;-33.830;151.202;2024-01-30T06:36:51;27.20;99.90
25668;DHT22;18003;-33.830;151.202;2024-01-30T06:39:21;27.10;99.90
25668;DHT22;18003;-33.830;151.202;2024-01-30T06:41:51;27.00;99.90
25668;DHT22;18003;-33.830;151.202;2024-01-30T06:44:21;27.10;99.90
25668;DHT22;18003;-33.830;151.202;2024-01-30T06:46:50;27.00;99.90
25668;DHT22;18003;-33.830;151.202;2024-01-30T06:49:20;27.00;99.90
25668;DHT22;18003;-33.830;151.202;2024-01-30T06:51:50;27.00;99.90
25668;DHT22;18003;-33.830;151.202;2024-01-30T06:54:20;27.00;99.90
25668;DHT22;18003;-33.830;151.202;2024-01-30T06:56:51;27.00;99.90
25668;DHT22;18003;-33.830;151.202;2024-01-30T06:59:20;27.00;99.90
25668;DHT22;18003;-33.830;151.202;2024-01-30T07:01:50;27.00;99.90
25668;DHT22;18003;-33.830;151.202;2024-01-30T07:04:22;27.00;99.90
25668;DHT22;18003;-33.830;151.202;2024-01-30T07:07:16;26.90;99.90
25668;DHT22;18003;-33.830;151.202;2024-01-30T07:09:46;26.90;99.90
25668;DHT22;18003;-33.830;151.202;2024-01-30T07:12:17;26.80;99.90
25668;DHT22;18003;-33.830;151.202;2024-01-30T07:14:50;26.80;99.90
25668;DHT22;18003;-33.830;151.202;2024-01-30T07:27:19;26.70;99.90
25668;DHT22;18003;-33.830;151.202;2024-01-30T07:29:49;26.70;99.90
25668;DHT22;18003;-33.830;151.202;2024-01-30T07:32:19;26.70;99.90
25668;DHT22;18003;-33.830;151.202;2024-01-30T07:41:31;26.60;99.90
25668;DHT22;18003;-33.830;151.202;2024-01-30T08:33:24;26.90;99.90
25668;DHT22;18003;-33.830;151.202;2024-01-30T08:36:05;27.00;99.90
25668;DHT22;18003;-33.830;151.202;2024-01-30T08:38:38;27.00;99.90
25668;DHT22;18003;-33.830;151.202;2024-01-30T10:00:15;26.10;99.90
25668;DHT22;18003;-33.830;151.202;2024-01-30T10:25:33;27.40;99.90
25668;DHT22;18003;-33.830;151.202;2024-01-30T10:28:04;27.70;99.90
25668;DHT22;18003;-33.830;151.202;2024-01-30T10:30:34;27.30;99.90
25668;DHT22;18003;-33.830;151.202;2024-01-30T10:52:11;27.60;99.90
25668;DHT22;18003;-33.830;151.202;2024-01-30T10:54:54;27.60;99.90
25668;DHT22;18003;-33.830;151.202;2024-01-30T10:57:42;27.30;99.90
25668;DHT22;18003;-33.830;151.202;2024-01-30T11:00:19;27.50;99.90
25668;DHT22;18003;-33.830;151.202;2024-01-30T11:02:51;27.60;99.90
25668;DHT22;18003;-33.830;151.202;2024-01-30T11:05:28;27.60;99.90
25668;DHT22;18003;-33.830;151.202;2024-01-30T11:07:58;27.20;99.90
25668;DHT22;18003;-33.830;151.202;2024-01-30T11:10:46;27.30;99.90
25668;DHT22;18003;-33.830;151.202;2024-01-30T11:13:18;27.50;99.90
25668;DHT22;18003;-33.830;151.202;2024-01-30T12:56:54;26.00;99.90
25668;DHT22;18003;-33.830;151.202;2024-01-30T12:59:24;25.90;99.90
25668;DHT22;18003;-33.830;151.202;2024-01-30T13:01:54;25.90;99.90
25668;DHT22;18003;-33.830;151.202;2024-01-30T13:04:24;25.90;99.90
25668;DHT22;18003;-33.830;151.202;2024-01-30T13:06:54;25.90;99.90
25668;DHT22;18003;-33.830;151.202;2024-01-30T13:09:25;25.90;99.90
25668;DHT22;18003;-33.830;151.202;2024-01-30T13:11:54;25.90;99.90
25668;DHT22;18003;-33.830;151.202;2024-01-30T13:14:25;25.90;99.90
25668;DHT22;18003;-33.830;151.202;2024-01-30T13:16:55;25.90;99.90
25668;DHT22;18003;-33.830;151.202;2024-01-30T13:19:25;25.80;99.90
25668;DHT22;18003;-33.830;151.202;2024-01-30T13:21:55;25.80;99.90
25668;DHT22;18003;-33.830;151.202;2024-01-30T13:24:24;25.80;99.90
25668;DHT22;18003;-33.830;151.202;2024-01-30T13:26:54;25.70;99.90
25668;DHT22;18003;-33.830;151.202;2024-01-30T13:29:30;25.70;99.90
25668;DHT22;18003;-33.830;151.202;2024-01-30T13:32:00;25.70;99.90
25668;DHT22;18003;-33.830;151.202;2024-01-30T13:34:30;25.70;99.90
25668;DHT22;18003;-33.830;151.202;2024-01-30T13:37:00;25.70;99.90
25668;DHT22;18003;-33.830;151.202;2024-01-30T13:39:31;25.70;99.90
25668;DHT22;18003;-33.830;151.202;2024-01-30T13:42:01;25.70;99.90
25668;DHT22;18003;-33.830;151.202;2024-01-30T13:44:31;25.70;99.90
25668;DHT22;18003;-33.830;151.202;2024-01-30T13:47:01;25.70;99.90
25668;DHT22;18003;-33.830;151.202;2024-01-30T13:49:30;25.70;99.90
25668;DHT22;18003;-33.830;151.202;2024-01-30T13:52:00;25.70;99.90
25668;DHT22;18003;-33.830;151.202;2024-01-30T13:54:31;25.70;99.90
25668;DHT22;18003;-33.830;151.202;2024-01-30T13:57:01;25.70;99.90
25668;DHT22;18003;-33.830;151.202;2024-01-30T13:59:31;25.70;99.90
25668;DHT22;18003;-33.830;151.202;2024-01-30T14:02:01;25.60;99.90
25668;DHT22;18003;-33.830;151.202;2024-01-30T14:04:30;25.60;99.90
25668;DHT22;18003;-33.830;151.202;2024-01-30T14:07:00;25.60;99.90
25668;DHT22;18003;-33.830;151.202;2024-01-30T14:09:30;25.50;99.90
25668;DHT22;18003;-33.830;151.202;2024-01-30T14:12:03;25.50;99.90
25668;DHT22;18003;-33.830;151.202;2024-01-30T14:14:37;25.50;99.90
25668;DHT22;18003;-33.830;151.202;2024-01-30T14:17:07;25.50;99.90
25668;DHT22;18003;-33.830;151.202;2024-01-30T14:19:37;25.50;99.90
25668;DHT22;18003;-33.830;151.202;2024-01-30T14:22:07;25.50;99.90
25668;DHT22;18003;-33.830;151.202;2024-01-30T14:24:37;25.50;99.90
25668;DHT22;18003;-33.830;151.202;2024-01-30T14:27:06;25.40;99.90
25668;DHT22;18003;-33.830;151.202;2024-01-30T14:29:36;25.40;99.90
25668;DHT22;18003;-33.830;151.202;2024-01-30T14:32:06;25.40;99.90
25668;DHT22;18003;-33.830;151.202;2024-01-30T14:34:36;25.40;99.90
25668;DHT22;18003;-33.830;151.202;2024-01-30T14:37:06;25.40;99.90
25668;DHT22;18003;-33.830;151.202;2024-01-30T14:39:36;25.40;99.90
25668;DHT22;18003;-33.830;151.202;2024-01-30T14:42:08;25.40;99.90
25668;DHT22;18003;-33.830;151.202;2024-01-30T14:44:38;25.40;99.90
25668;DHT22;18003;-33.830;151.202;2024-01-30T14:47:07;25.40;99.90
25668;DHT22;18003;-33.830;151.202;2024-01-30T14:49:37;25.50;99.90
25668;DHT22;18003;-33.830;151.202;2024-01-30T14:52:07;25.40;99.90
25668;DHT22;18003;-33.830;151.202;2024-01-30T14:54:38;25.40;99.90
25668;DHT22;18003;-33.830;151.202;2024-01-30T14:57:08;25.40;99.90
25668;DHT22;18003;-33.830;151.202;2024-01-30T14:59:37;25.40;99.90
25668;DHT22;18003;-33.830;151.202;2024-01-30T15:02:07;25.40;99.90
25668;DHT22;18003;-33.830;151.202;2024-01-30T15:04:37;25.40;99.90
25668;DHT22;18003;-33.830;151.202;2024-01-30T15:07:07;25.30;99.90
25668;DHT22;18003;-33.830;151.202;2024-01-30T15:09:37;25.40;99.90
25668;DHT22;18003;-33.830;151.202;2024-01-30T15:12:07;25.30;99.90
25668;DHT22;18003;-33.830;151.202;2024-01-30T15:14:37;25.30;99.90
25668;DHT22;18003;-33.830;151.202;2024-01-30T15:17:06;25.40;99.90
25668;DHT22;18003;-33.830;151.202;2024-01-30T15:19:37;25.30;99.90
25668;DHT22;18003;-33.830;151.202;2024-01-30T15:22:07;25.30;99.90
25668;DHT22;18003;-33.830;151.202;2024-01-30T15:24:37;25.30;99.90
25668;DHT22;18003;-33.830;151.202;2024-01-30T15:27:10;25.30;99.90
25668;DHT22;18003;-33.830;151.202;2024-01-30T15:29:47;25.30;99.90
25668;DHT22;18003;-33.830;151.202;2024-01-30T15:32:17;25.30;99.90
25668;DHT22;18003;-33.830;151.202;2024-01-30T15:34:56;25.30;99.90
25668;DHT22;18003;-33.830;151.202;2024-01-30T16:59:25;25.00;99.90
25668;DHT22;18003;-33.830;151.202;2024-01-30T17:01:54;25.00;99.90
25668;DHT22;18003;-33.830;151.202;2024-01-30T17:04:25;25.00;99.90
25668;DHT22;18003;-33.830;151.202;2024-01-30T17:06:54;25.10;99.90
25668;DHT22;18003;-33.830;151.202;2024-01-30T17:09:44;25.00;99.90
25668;DHT22;18003;-33.830;151.202;2024-01-30T17:12:15;25.00;99.90
25668;DHT22;18003;-33.830;151.202;2024-01-30T17:14:45;25.00;99.90
25668;DHT22;18003;-33.830;151.202;2024-01-30T17:17:23;25.00;99.90
25668;DHT22;18003;-33.830;151.202;2024-01-30T17:19:54;25.00;99.90
25668;DHT22;18003;-33.830;151.202;2024-01-30T17:22:25;25.00;99.90
25668;DHT22;18003;-33.830;151.202;2024-01-30T17:24:56;24.90;99.90
25668;DHT22;18003;-33.830;151.202;2024-01-30T17:27:26;24.90;99.90
25668;DHT22;18003;-33.830;151.202;2024-01-30T17:29:56;24.90;99.90
25668;DHT22;18003;-33.830;151.202;2024-01-30T17:32:25;24.90;99.90
25668;DHT22;18003;-33.830;151.202;2024-01-30T17:34:55;24.90;99.90
25668;DHT22;18003;-33.830;151.202;2024-01-30T17:37:25;24.90;99.90
25668;DHT22;18003;-33.830;151.202;2024-01-30T17:39:55;24.90;99.90
25668;DHT22;18003;-33.830;151.202;2024-01-30T17:42:25;24.90;99.90
25668;DHT22;18003;-33.830;151.202;2024-01-30T17:44:58;24.90;99.90
25668;DHT22;18003;-33.830;151.202;2024-01-30T17:47:26;24.90;99.90
25668;DHT22;18003;-33.830;151.202;2024-01-30T17:49:56;24.90;99.90
25668;DHT22;18003;-33.830;151.202;2024-01-30T17:52:29;24.90;99.90
25668;DHT22;18003;-33.830;151.202;2024-01-30T17:54:57;24.90;99.90
25668;DHT22;18003;-33.830;151.202;2024-01-30T17:57:36;24.90;99.90
25668;DHT22;18003;-33.830;151.202;2024-01-30T18:00:06;24.90;99.90
25668;DHT22;18003;-33.830;151.202;2024-01-30T18:02:36;24.90;99.90
25668;DHT22;18003;-33.830;151.202;2024-01-30T18:05:07;24.90;99.90
25668;DHT22;18003;-33.830;151.202;2024-01-30T18:07:37;24.80;99.90
25668;DHT22;18003;-33.830;151.202;2024-01-30T18:10:08;24.80;99.90
25668;DHT22;18003;-33.830;151.202;2024-01-30T18:12:39;24.80;99.90
25668;DHT22;18003;-33.830;151.202;2024-01-30T18:15:10;24.80;99.90
25668;DHT22;18003;-33.830;151.202;2024-01-30T18:17:39;24.90;99.90
25668;DHT22;18003;-33.830;151.202;2024-01-30T18:20:10;24.90;99.90
25668;DHT22;18003;-33.830;151.202;2024-01-30T18:22:39;24.90;99.90
25668;DHT22;18003;-33.830;151.202;2024-01-30T18:25:10;24.80;99.90
25668;DHT22;18003;-33.830;151.202;2024-01-30T18:27:40;24.80;99.90
25668;DHT22;18003;-33.830;151.202;2024-01-30T18:30:20;24.80;99.90
25668;DHT22;18003;-33.830;151.202;2024-01-30T18:32:51;24.90;99.90
25668;DHT22;18003;-33.830;151.202;2024-01-30T18:35:21;24.90;99.90
25668;DHT22;18003;-33.830;151.202;2024-01-30T18:37:51;24.90;99.90
25668;DHT22;18003;-33.830;151.202;2024-01-30T18:40:21;24.90;99.90
25668;DHT22;18003;-33.830;151.202;2024-01-30T18:42:51;24.90;99.90
25668;DHT22;18003;-33.830;151.202;2024-01-30T18:45:20;24.90;99.90
25668;DHT22;18003;-33.830;151.202;2024-01-30T18:47:50;24.90;99.90
25668;DHT22;18003;-33.830;151.202;2024-01-30T18:50:20;24.90;99.90
25668;DHT22;18003;-33.830;151.202;2024-01-30T18:52:51;24.90;99.90
25668;DHT22;18003;-33.830;151.202;2024-01-30T18:55:21;24.90;99.90
25668;DHT22;18003;-33.830;151.202;2024-01-30T18:57:51;24.90;99.90
25668;DHT22;18003;-33.830;151.202;2024-01-30T19:00:21;24.90;99.90
25668;DHT22;18003;-33.830;151.202;2024-01-30T19:02:50;24.90;99.90
25668;DHT22;18003;-33.830;151.202;2024-01-30T19:05:20;24.90;99.90
25668;DHT22;18003;-33.830;151.202;2024-01-30T19:10:55;24.80;99.90
25668;DHT22;18003;-33.830;151.202;2024-01-30T19:13:25;24.80;99.90
25668;DHT22;18003;-33.830;151.202;2024-01-30T19:15:55;24.80;99.90
25668;DHT22;18003;-33.830;151.202;2024-01-30T19:18:25;24.80;99.90
25668;DHT22;18003;-33.830;151.202;2024-01-30T19:27:11;24.80;99.90
25668;DHT22;18003;-33.830;151.202;2024-01-30T19:29:41;24.80;99.90
25668;DHT22;18003;-33.830;151.202;2024-01-30T20:07:55;24.80;99.90
25668;DHT22;18003;-33.830;151.202;2024-01-30T20:10:25;24.90;99.90
25668;DHT22;18003;-33.830;151.202;2024-01-30T20:12:55;24.90;99.90
25668;DHT22;18003;-33.830;151.202;2024-01-30T20:15:29;24.80;99.90
25668;DHT22;18003;-33.830;151.202;2024-01-30T21:32:00;27.10;99.90
25668;DHT22;18003;-33.830;151.202;2024-01-30T21:34:30;26.70;99.90
25668;DHT22;18003;-33.830;151.202;2024-01-30T21:37:01;26.70;99.90
25668;DHT22;18003;-33.830;151.202;2024-01-30T21:39:31;26.90;99.90
25668;DHT22;18003;-33.830;151.202;2024-01-30T21:42:00;27.10;99.90
25668;DHT22;18003;-33.830;151.202;2024-01-30T21:44:30;27.10;99.90
25668;DHT22;18003;-33.830;151.202;2024-01-30T21:47:18;26.70;99.90
25668;DHT22;18003;-33.830;151.202;2024-01-30T21:49:48;26.80;99.90
25668;DHT22;18003;-33.830;151.202;2024-01-30T21:52:19;27.10;99.90
25668;DHT22;18003;-33.830;151.202;2024-01-30T21:54:51;27.20;99.90
25668;DHT22;18003;-33.830;151.202;2024-01-30T21:57:21;27.10;99.90
25668;DHT22;18003;-33.830;151.202;2024-01-30T21:59:50;26.80;99.90
25668;DHT22;18003;-33.830;151.202;2024-01-30T22:02:23;27.00;99.90
25668;DHT22;18003;-33.830;151.202;2024-01-30T22:04:53;27.10;99.90
25668;DHT22;18003;-33.830;151.202;2024-01-30T22:07:23;27.20;99.90
25668;DHT22;18003;-33.830;151.202;2024-01-30T22:09:53;27.00;99.90
25668;DHT22;18003;-33.830;151.202;2024-01-30T22:12:25;26.70;99.90
25668;DHT22;18003;-33.830;151.202;2024-01-30T22:14:55;27.00;99.90
25668;DHT22;18003;-33.830;151.202;2024-01-30T22:17:24;27.10;99.90
25668;DHT22;18003;-33.830;151.202;2024-01-30T22:20:02;27.20;99.90
25668;DHT22;18003;-33.830;151.202;2024-01-30T22:22:31;26.90;99.90
25668;DHT22;18003;-33.830;151.202;2024-01-30T22:25:01;26.80;99.90
25668;DHT22;18003;-33.830;151.202;2024-01-30T22:27:31;27.00;99.90
25668;DHT22;18003;-33.830;151.202;2024-01-30T22:30:02;27.10;99.90
25668;DHT22;18003;-33.830;151.202;2024-01-30T23:20:55;27.20;99.90
25668;DHT22;18003;-33.830;151.202;2024-01-30T23:23:25;27.00;99.90
25668;DHT22;18003;-33.830;151.202;2024-01-30T23:25:55;26.90;99.90
25668;DHT22;18003;-33.830;151.202;2024-01-30T23:28:32;27.10;99.90
25668;DHT22;18003;-33.830;151.202;2024-01-30T23:31:05;27.20;99.90
25668;DHT22;18003;-33.830;151.202;2024-01-30T23:33:36;27.30;99.90
25668;DHT22;18003;-33.830;151.202;2024-01-30T23:36:09;27.00;99.90
25668;DHT22;18003;-33.830;151.202;2024-01-30T23:38:40;26.90;99.90
25668;DHT22;18003;-33.830;151.202;2024-01-30T23:41:09;27.10;99.90
25668;DHT22;18003;-33.830;151.202;2024-01-30T23:43:39;27.20;99.90
25668;DHT22;18003;-33.830;151.202;2024-01-30T23:46:12;27.20;99.90
25668;DHT22;18003;-33.830;151.202;2024-01-30T23:48:42;27.00;99.90
25668;DHT22;18003;-33.830;151.202;2024-01-30T23:51:15;26.90;99.90
25668;DHT22;18003;-33.830;151.202;2024-01-30T23:53:46;27.10;99.90
25668;DHT22;18003;-33.830;151.202;2024-01-30T23:56:15;27.10;99.90
